sensor_id;sensor_type;location;lat;lon;timestamp;P1;durP1;ratioP1;P2;durP2;ratioP2
60100;SDS011;45978;53.646;55.930;2022-10-29T00:00:17;2.88;;;2.40;;
60100;SDS011;45978;53.646;55.930;2022-10-29T00:01:18;5.40;;;2.20;;
60100;SDS011;45978;53.646;55.930;2022-10-29T00:02:19;3.40;;;2.45;;
60100;SDS011;45978;53.646;55.930;2022-10-29T00:03:22;2.47;;;2.28;;
60100;SDS011;45978;53.646;55.930;2022-10-29T00:04:26;3.88;;;2.67;;
60100;SDS011;45978;53.646;55.930;2022-10-29T00:05:27;2.50;;;2.30;;
60100;SDS011;45978;53.646;55.930;2022-10-29T00:06:30;4.70;;;2.30;;
60100;SDS011;45978;53.646;55.930;2022-10-29T00:07:31;3.55;;;2.33;;
60100;SDS011;45978;53.646;55.930;2022-10-29T00:08:33;1.67;;;1.50;;
60100;SDS011;45978;53.646;55.930;2022-10-29T00:09:38;2.50;;;2.30;;
60100;SDS011;45978;53.646;55.930;2022-10-29T00:10:39;3.65;;;2.38;;
60100;SDS011;45978;53.646;55.930;2022-10-29T00:11:40;2.13;;;1.95;;
60100;SDS011;45978;53.646;55.930;2022-10-29T00:12:42;2.17;;;2.00;;
60100;SDS011;45978;53.646;55.930;2022-10-29T00:13:43;2.83;;;2.53;;
60100;SDS011;45978;53.646;55.930;2022-10-29T00:14:45;3.30;;;2.67;;
60100;SDS011;45978;53.646;55.930;2022-10-29T00:15:46;2.80;;;2.30;;
60100;SDS011;45978;53.646;55.930;2022-10-29T00:16:48;5.55;;;2.10;;
60100;SDS011;45978;53.646;55.930;2022-10-29T00:17:52;4.15;;;2.40;;
60100;SDS011;45978;53.646;55.930;2022-10-29T00:18:56;4.22;;;2.00;;
60100;SDS011;45978;53.646;55.930;2022-10-29T00:19:58;3.78;;;2.10;;
60100;SDS011;45978;53.646;55.930;2022-10-29T00:21:01;3.25;;;2.80;;
60100;SDS011;45978;53.646;55.930;2022-10-29T00:22:02;4.78;;;2.78;;
60100;SDS011;45978;53.646;55.930;2022-10-29T00:23:03;7.18;;;2.85;;
60100;SDS011;45978;53.646;55.930;2022-10-29T00:24:05;4.60;;;2.40;;
60100;SDS011;45978;53.646;55.930;2022-10-29T00:25:08;3.28;;;2.38;;
60100;SDS011;45978;53.646;55.930;2022-10-29T00:26:13;5.00;;;2.22;;
60100;SDS011;45978;53.646;55.930;2022-10-29T00:27:15;3.35;;;1.90;;
60100;SDS011;45978;53.646;55.930;2022-10-29T00:28:17;3.22;;;2.30;;
60100;SDS011;45978;53.646;55.930;2022-10-29T00:29:18;2.80;;;2.50;;
60100;SDS011;45978;53.646;55.930;2022-10-29T00:30:20;29.38;;;3.63;;
60100;SDS011;45978;53.646;55.930;2022-10-29T00:31:22;3.53;;;2.45;;
60100;SDS011;45978;53.646;55.930;2022-10-29T00:32:24;3.90;;;2.70;;
60100;SDS011;45978;53.646;55.930;2022-10-29T00:33:26;2.58;;;2.38;;
60100;SDS011;45978;53.646;55.930;2022-10-29T00:34:29;2.45;;;2.25;;
60100;SDS011;45978;53.646;55.930;2022-10-29T00:35:32;2.33;;;2.13;;
60100;SDS011;45978;53.646;55.930;2022-10-29T00:36:34;2.45;;;2.25;;
60100;SDS011;45978;53.646;55.930;2022-10-29T00:37:36;5.97;;;2.20;;
60100;SDS011;45978;53.646;55.930;2022-10-29T00:38:38;8.20;;;2.45;;
60100;SDS011;45978;53.646;55.930;2022-10-29T00:39:40;4.90;;;2.80;;
60100;SDS011;45978;53.646;55.930;2022-10-29T00:40:42;5.38;;;2.13;;
60100;SDS011;45978;53.646;55.930;2022-10-29T00:41:43;2.80;;;2.42;;
60100;SDS011;45978;53.646;55.930;2022-10-29T00:42:45;3.55;;;2.70;;
60100;SDS011;45978;53.646;55.930;2022-10-29T00:43:47;2.72;;;2.13;;
60100;SDS011;45978;53.646;55.930;2022-10-29T00:44:50;2.90;;;2.20;;
60100;SDS011;45978;53.646;55.930;2022-10-29T00:48:25;3.22;;;2.50;;
60100;SDS011;45978;53.646;55.930;2022-10-29T00:49:30;4.28;;;2.42;;
60100;SDS011;45978;53.646;55.930;2022-10-29T00:50:34;5.32;;;2.50;;
60100;SDS011;45978;53.646;55.930;2022-10-29T00:51:35;2.90;;;2.70;;
60100;SDS011;45978;53.646;55.930;2022-10-29T00:52:38;2.92;;;2.38;;
60100;SDS011;45978;53.646;55.930;2022-10-29T00:53:47;2.70;;;2.50;;
60100;SDS011;45978;53.646;55.930;2022-10-29T00:54:56;3.22;;;2.50;;
60100;SDS011;45978;53.646;55.930;2022-10-29T00:56:02;3.42;;;2.78;;
60100;SDS011;45978;53.646;55.930;2022-10-29T00:57:06;3.70;;;2.88;;
60100;SDS011;45978;53.646;55.930;2022-10-29T00:58:12;3.60;;;2.78;;
60100;SDS011;45978;53.646;55.930;2022-10-29T00:59:14;2.60;;;2.30;;
60100;SDS011;45978;53.646;55.930;2022-10-29T01:00:17;4.38;;;2.85;;
60100;SDS011;45978;53.646;55.930;2022-10-29T01:01:21;3.38;;;3.08;;
60100;SDS011;45978;53.646;55.930;2022-10-29T01:02:27;4.07;;;2.95;;
60100;SDS011;45978;53.646;55.930;2022-10-29T01:03:32;3.15;;;2.55;;
60100;SDS011;45978;53.646;55.930;2022-10-29T01:04:33;2.95;;;2.75;;
60100;SDS011;45978;53.646;55.930;2022-10-29T01:05:36;5.00;;;2.80;;
60100;SDS011;45978;53.646;55.930;2022-10-29T01:06:40;9.32;;;3.33;;
60100;SDS011;45978;53.646;55.930;2022-10-29T01:07:46;3.65;;;2.95;;
60100;SDS011;45978;53.646;55.930;2022-10-29T01:08:47;5.70;;;2.45;;
60100;SDS011;45978;53.646;55.930;2022-10-29T01:09:51;5.65;;;2.88;;
60100;SDS011;45978;53.646;55.930;2022-10-29T01:16:33;3.15;;;2.85;;
60100;SDS011;45978;53.646;55.930;2022-10-29T01:21:14;6.20;;;2.78;;
60100;SDS011;45978;53.646;55.930;2022-10-29T01:22:22;3.55;;;2.88;;
60100;SDS011;45978;53.646;55.930;2022-10-29T01:32:17;3.92;;;2.92;;
60100;SDS011;45978;53.646;55.930;2022-10-29T01:33:24;4.45;;;3.10;;
60100;SDS011;45978;53.646;55.930;2022-10-29T01:36:10;6.25;;;2.67;;
60100;SDS011;45978;53.646;55.930;2022-10-29T01:37:52;6.93;;;3.00;;
60100;SDS011;45978;53.646;55.930;2022-10-29T01:40:29;6.00;;;3.60;;
60100;SDS011;45978;53.646;55.930;2022-10-29T01:41:42;18.80;;;4.32;;
60100;SDS011;45978;53.646;55.930;2022-10-29T01:43:12;5.47;;;4.18;;
60100;SDS011;45978;53.646;55.930;2022-10-29T01:44:21;10.30;;;4.18;;
60100;SDS011;45978;53.646;55.930;2022-10-29T01:45:48;6.47;;;3.30;;
60100;SDS011;45978;53.646;55.930;2022-10-29T01:47:04;11.15;;;4.28;;
60100;SDS011;45978;53.646;55.930;2022-10-29T01:48:14;6.85;;;3.42;;
60100;SDS011;45978;53.646;55.930;2022-10-29T01:49:33;3.88;;;1.85;;
60100;SDS011;45978;53.646;55.930;2022-10-29T01:50:39;5.72;;;3.67;;
60100;SDS011;45978;53.646;55.930;2022-10-29T01:51:47;4.05;;;3.40;;
60100;SDS011;45978;53.646;55.930;2022-10-29T01:52:57;5.00;;;3.53;;
60100;SDS011;45978;53.646;55.930;2022-10-29T01:54:01;6.72;;;3.80;;
60100;SDS011;45978;53.646;55.930;2022-10-29T01:55:27;9.18;;;3.67;;
60100;SDS011;45978;53.646;55.930;2022-10-29T01:56:33;8.07;;;3.85;;
60100;SDS011;45978;53.646;55.930;2022-10-29T01:57:35;4.72;;;3.70;;
60100;SDS011;45978;53.646;55.930;2022-10-29T01:58:41;5.15;;;3.90;;
60100;SDS011;45978;53.646;55.930;2022-10-29T01:59:56;5.93;;;3.72;;
60100;SDS011;45978;53.646;55.930;2022-10-29T02:04:44;3.58;;;2.85;;
60100;SDS011;45978;53.646;55.930;2022-10-29T02:09:55;8.77;;;4.22;;
60100;SDS011;45978;53.646;55.930;2022-10-29T02:11:09;7.30;;;3.55;;
60100;SDS011;45978;53.646;55.930;2022-10-29T02:14:14;6.50;;;4.10;;
60100;SDS011;45978;53.646;55.930;2022-10-29T02:16:22;7.10;;;4.45;;
60100;SDS011;45978;53.646;55.930;2022-10-29T02:17:26;6.60;;;4.03;;
60100;SDS011;45978;53.646;55.930;2022-10-29T02:18:41;8.63;;;4.40;;
60100;SDS011;45978;53.646;55.930;2022-10-29T02:19:45;10.05;;;4.63;;
60100;SDS011;45978;53.646;55.930;2022-10-29T02:20:48;7.22;;;4.30;;
60100;SDS011;45978;53.646;55.930;2022-10-29T02:21:51;8.02;;;4.30;;
60100;SDS011;45978;53.646;55.930;2022-10-29T02:22:53;8.07;;;4.35;;
60100;SDS011;45978;53.646;55.930;2022-10-29T02:23:56;6.88;;;4.47;;
60100;SDS011;45978;53.646;55.930;2022-10-29T02:24:57;7.00;;;4.07;;
60100;SDS011;45978;53.646;55.930;2022-10-29T02:25:59;5.72;;;4.28;;
60100;SDS011;45978;53.646;55.930;2022-10-29T02:27:00;5.35;;;3.63;;
60100;SDS011;45978;53.646;55.930;2022-10-29T02:28:05;4.30;;;3.03;;
60100;SDS011;45978;53.646;55.930;2022-10-29T02:29:07;5.05;;;3.78;;
60100;SDS011;45978;53.646;55.930;2022-10-29T02:30:09;7.55;;;3.75;;
60100;SDS011;45978;53.646;55.930;2022-10-29T02:31:14;7.30;;;3.33;;
60100;SDS011;45978;53.646;55.930;2022-10-29T02:32:22;9.38;;;3.10;;
60100;SDS011;45978;53.646;55.930;2022-10-29T02:33:30;5.93;;;3.38;;
60100;SDS011;45978;53.646;55.930;2022-10-29T02:34:33;6.65;;;4.60;;
60100;SDS011;45978;53.646;55.930;2022-10-29T02:35:35;4.88;;;2.90;;
60100;SDS011;45978;53.646;55.930;2022-10-29T02:36:37;5.10;;;3.22;;
60100;SDS011;45978;53.646;55.930;2022-10-29T02:37:40;5.68;;;3.35;;
60100;SDS011;45978;53.646;55.930;2022-10-29T02:38:42;4.53;;;3.28;;
60100;SDS011;45978;53.646;55.930;2022-10-29T02:39:45;9.07;;;3.70;;
60100;SDS011;45978;53.646;55.930;2022-10-29T02:40:46;5.72;;;3.72;;
60100;SDS011;45978;53.646;55.930;2022-10-29T02:41:49;13.27;;;2.92;;
60100;SDS011;45978;53.646;55.930;2022-10-29T02:42:50;9.35;;;3.67;;
60100;SDS011;45978;53.646;55.930;2022-10-29T02:43:55;8.15;;;3.08;;
60100;SDS011;45978;53.646;55.930;2022-10-29T02:44:58;3.78;;;2.90;;
60100;SDS011;45978;53.646;55.930;2022-10-29T02:46:10;6.75;;;3.65;;
60100;SDS011;45978;53.646;55.930;2022-10-29T02:47:13;9.02;;;4.53;;
60100;SDS011;45978;53.646;55.930;2022-10-29T02:48:14;9.65;;;3.92;;
60100;SDS011;45978;53.646;55.930;2022-10-29T02:49:19;9.50;;;4.00;;
60100;SDS011;45978;53.646;55.930;2022-10-29T02:50:21;18.15;;;4.18;;
60100;SDS011;45978;53.646;55.930;2022-10-29T02:51:22;10.50;;;4.38;;
60100;SDS011;45978;53.646;55.930;2022-10-29T02:52:25;9.43;;;4.20;;
60100;SDS011;45978;53.646;55.930;2022-10-29T02:53:27;11.43;;;4.28;;
60100;SDS011;45978;53.646;55.930;2022-10-29T02:59:06;6.85;;;4.18;;
60100;SDS011;45978;53.646;55.930;2022-10-29T03:04:51;5.22;;;4.05;;
60100;SDS011;45978;53.646;55.930;2022-10-29T03:06:14;11.57;;;4.78;;
60100;SDS011;45978;53.646;55.930;2022-10-29T03:07:59;6.35;;;4.05;;
60100;SDS011;45978;53.646;55.930;2022-10-29T03:09:14;9.98;;;4.20;;
60100;SDS011;45978;53.646;55.930;2022-10-29T03:10:15;7.22;;;4.68;;
60100;SDS011;45978;53.646;55.930;2022-10-29T03:11:18;7.60;;;4.32;;
60100;SDS011;45978;53.646;55.930;2022-10-29T03:13:06;9.00;;;3.83;;
60100;SDS011;45978;53.646;55.930;2022-10-29T03:14:08;4.78;;;3.45;;
60100;SDS011;45978;53.646;55.930;2022-10-29T03:15:10;8.60;;;4.60;;
60100;SDS011;45978;53.646;55.930;2022-10-29T03:16:13;21.70;;;4.70;;
60100;SDS011;45978;53.646;55.930;2022-10-29T03:17:14;9.20;;;4.30;;
60100;SDS011;45978;53.646;55.930;2022-10-29T03:18:19;6.57;;;4.85;;
60100;SDS011;45978;53.646;55.930;2022-10-29T03:19:21;9.05;;;3.97;;
60100;SDS011;45978;53.646;55.930;2022-10-29T03:20:23;7.80;;;3.65;;
60100;SDS011;45978;53.646;55.930;2022-10-29T03:21:24;9.00;;;4.13;;
60100;SDS011;45978;53.646;55.930;2022-10-29T03:22:27;6.63;;;4.05;;
60100;SDS011;45978;53.646;55.930;2022-10-29T03:23:32;10.02;;;3.80;;
60100;SDS011;45978;53.646;55.930;2022-10-29T03:24:34;4.72;;;3.60;;
60100;SDS011;45978;53.646;55.930;2022-10-29T03:25:35;8.07;;;4.75;;
60100;SDS011;45978;53.646;55.930;2022-10-29T03:26:39;6.85;;;3.92;;
60100;SDS011;45978;53.646;55.930;2022-10-29T03:27:42;7.30;;;3.60;;
60100;SDS011;45978;53.646;55.930;2022-10-29T03:28:44;7.28;;;3.80;;
60100;SDS011;45978;53.646;55.930;2022-10-29T03:29:45;5.18;;;4.13;;
60100;SDS011;45978;53.646;55.930;2022-10-29T03:30:46;4.10;;;3.67;;
60100;SDS011;45978;53.646;55.930;2022-10-29T03:31:49;4.53;;;3.38;;
60100;SDS011;45978;53.646;55.930;2022-10-29T03:32:50;13.73;;;3.53;;
60100;SDS011;45978;53.646;55.930;2022-10-29T03:33:51;8.32;;;4.22;;
60100;SDS011;45978;53.646;55.930;2022-10-29T03:34:52;5.65;;;3.83;;
60100;SDS011;45978;53.646;55.930;2022-10-29T03:35:58;4.85;;;3.45;;
60100;SDS011;45978;53.646;55.930;2022-10-29T03:37:01;4.35;;;3.55;;
60100;SDS011;45978;53.646;55.930;2022-10-29T03:38:02;4.05;;;3.17;;
60100;SDS011;45978;53.646;55.930;2022-10-29T03:39:06;7.07;;;3.70;;
60100;SDS011;45978;53.646;55.930;2022-10-29T03:40:09;4.13;;;3.40;;
60100;SDS011;45978;53.646;55.930;2022-10-29T03:41:10;4.00;;;3.70;;
60100;SDS011;45978;53.646;55.930;2022-10-29T03:42:13;4.93;;;4.00;;
60100;SDS011;45978;53.646;55.930;2022-10-29T03:43:14;6.90;;;3.80;;
60100;SDS011;45978;53.646;55.930;2022-10-29T03:44:18;6.57;;;3.88;;
60100;SDS011;45978;53.646;55.930;2022-10-29T03:45:22;5.07;;;3.53;;
60100;SDS011;45978;53.646;55.930;2022-10-29T03:46:24;9.52;;;4.22;;
60100;SDS011;45978;53.646;55.930;2022-10-29T03:47:26;10.98;;;4.05;;
60100;SDS011;45978;53.646;55.930;2022-10-29T03:48:29;5.88;;;3.45;;
60100;SDS011;45978;53.646;55.930;2022-10-29T03:49:30;6.45;;;3.85;;
60100;SDS011;45978;53.646;55.930;2022-10-29T03:50:42;10.02;;;3.78;;
60100;SDS011;45978;53.646;55.930;2022-10-29T03:51:44;3.63;;;2.97;;
60100;SDS011;45978;53.646;55.930;2022-10-29T03:52:46;5.85;;;4.30;;
60100;SDS011;45978;53.646;55.930;2022-10-29T03:53:50;11.45;;;4.38;;
60100;SDS011;45978;53.646;55.930;2022-10-29T03:54:51;16.13;;;4.90;;
60100;SDS011;45978;53.646;55.930;2022-10-29T03:56:01;15.90;;;8.38;;
60100;SDS011;45978;53.646;55.930;2022-10-29T03:57:12;22.27;;;11.07;;
60100;SDS011;45978;53.646;55.930;2022-10-29T03:58:13;43.80;;;18.08;;
60100;SDS011;45978;53.646;55.930;2022-10-29T03:59:15;8.13;;;5.85;;
60100;SDS011;45978;53.646;55.930;2022-10-29T04:00:16;8.50;;;5.90;;
60100;SDS011;45978;53.646;55.930;2022-10-29T04:01:21;9.68;;;4.55;;
60100;SDS011;45978;53.646;55.930;2022-10-29T04:02:23;13.43;;;4.97;;
60100;SDS011;45978;53.646;55.930;2022-10-29T04:03:25;15.10;;;4.32;;
60100;SDS011;45978;53.646;55.930;2022-10-29T04:04:27;7.72;;;4.57;;
60100;SDS011;45978;53.646;55.930;2022-10-29T04:05:30;10.30;;;4.32;;
60100;SDS011;45978;53.646;55.930;2022-10-29T04:06:31;11.18;;;4.85;;
60100;SDS011;45978;53.646;55.930;2022-10-29T04:07:33;10.30;;;4.25;;
60100;SDS011;45978;53.646;55.930;2022-10-29T04:08:35;6.53;;;4.50;;
60100;SDS011;45978;53.646;55.930;2022-10-29T04:09:36;7.93;;;4.68;;
60100;SDS011;45978;53.646;55.930;2022-10-29T04:10:42;9.18;;;4.68;;
60100;SDS011;45978;53.646;55.930;2022-10-29T04:11:44;9.48;;;4.88;;
60100;SDS011;45978;53.646;55.930;2022-10-29T04:12:45;6.07;;;4.32;;
60100;SDS011;45978;53.646;55.930;2022-10-29T04:13:50;7.75;;;4.75;;
60100;SDS011;45978;53.646;55.930;2022-10-29T04:14:53;7.75;;;4.55;;
60100;SDS011;45978;53.646;55.930;2022-10-29T04:15:55;12.18;;;4.70;;
60100;SDS011;45978;53.646;55.930;2022-10-29T04:16:56;7.15;;;4.38;;
60100;SDS011;45978;53.646;55.930;2022-10-29T04:18:00;14.48;;;4.93;;
60100;SDS011;45978;53.646;55.930;2022-10-29T04:19:03;7.00;;;3.95;;
60100;SDS011;45978;53.646;55.930;2022-10-29T04:20:06;6.18;;;4.50;;
60100;SDS011;45978;53.646;55.930;2022-10-29T04:21:07;7.70;;;4.18;;
60100;SDS011;45978;53.646;55.930;2022-10-29T04:22:08;6.63;;;4.70;;
60100;SDS011;45978;53.646;55.930;2022-10-29T04:23:10;13.20;;;4.68;;
60100;SDS011;45978;53.646;55.930;2022-10-29T04:24:13;5.63;;;4.20;;
60100;SDS011;45978;53.646;55.930;2022-10-29T04:25:14;7.55;;;4.22;;
60100;SDS011;45978;53.646;55.930;2022-10-29T04:26:18;9.27;;;4.80;;
60100;SDS011;45978;53.646;55.930;2022-10-29T04:27:20;7.32;;;4.13;;
60100;SDS011;45978;53.646;55.930;2022-10-29T04:28:21;7.72;;;5.30;;
60100;SDS011;45978;53.646;55.930;2022-10-29T04:29:24;6.78;;;4.80;;
60100;SDS011;45978;53.646;55.930;2022-10-29T04:30:26;11.80;;;4.57;;
60100;SDS011;45978;53.646;55.930;2022-10-29T04:31:27;7.53;;;4.43;;
60100;SDS011;45978;53.646;55.930;2022-10-29T04:32:30;9.52;;;3.95;;
60100;SDS011;45978;53.646;55.930;2022-10-29T04:33:31;10.70;;;4.75;;
60100;SDS011;45978;53.646;55.930;2022-10-29T04:34:34;6.70;;;4.43;;
60100;SDS011;45978;53.646;55.930;2022-10-29T04:35:36;9.52;;;4.72;;
60100;SDS011;45978;53.646;55.930;2022-10-29T04:36:39;5.82;;;4.10;;
60100;SDS011;45978;53.646;55.930;2022-10-29T04:37:41;6.75;;;4.30;;
60100;SDS011;45978;53.646;55.930;2022-10-29T04:38:42;6.07;;;4.38;;
60100;SDS011;45978;53.646;55.930;2022-10-29T04:39:43;13.57;;;4.45;;
60100;SDS011;45978;53.646;55.930;2022-10-29T04:40:44;13.27;;;4.95;;
60100;SDS011;45978;53.646;55.930;2022-10-29T04:41:48;9.65;;;5.00;;
60100;SDS011;45978;53.646;55.930;2022-10-29T04:42:50;18.27;;;4.65;;
60100;SDS011;45978;53.646;55.930;2022-10-29T04:43:55;9.18;;;3.72;;
60100;SDS011;45978;53.646;55.930;2022-10-29T04:44:56;7.90;;;4.82;;
60100;SDS011;45978;53.646;55.930;2022-10-29T04:45:59;11.68;;;4.60;;
60100;SDS011;45978;53.646;55.930;2022-10-29T04:47:02;9.93;;;4.35;;
60100;SDS011;45978;53.646;55.930;2022-10-29T04:48:04;12.80;;;4.38;;
60100;SDS011;45978;53.646;55.930;2022-10-29T04:49:06;8.90;;;4.75;;
60100;SDS011;45978;53.646;55.930;2022-10-29T04:50:10;7.75;;;4.93;;
60100;SDS011;45978;53.646;55.930;2022-10-29T04:51:18;6.70;;;4.63;;
60100;SDS011;45978;53.646;55.930;2022-10-29T04:52:25;7.03;;;4.70;;
60100;SDS011;45978;53.646;55.930;2022-10-29T04:53:29;9.63;;;4.60;;
60100;SDS011;45978;53.646;55.930;2022-10-29T04:54:31;13.23;;;4.70;;
60100;SDS011;45978;53.646;55.930;2022-10-29T04:55:37;9.32;;;4.32;;
60100;SDS011;45978;53.646;55.930;2022-10-29T04:56:39;5.70;;;4.13;;
60100;SDS011;45978;53.646;55.930;2022-10-29T04:57:42;10.95;;;4.35;;
60100;SDS011;45978;53.646;55.930;2022-10-29T04:58:50;8.10;;;4.22;;
60100;SDS011;45978;53.646;55.930;2022-10-29T04:59:52;5.15;;;4.20;;
60100;SDS011;45978;53.646;55.930;2022-10-29T05:00:57;4.95;;;4.35;;
60100;SDS011;45978;53.646;55.930;2022-10-29T05:02:01;10.48;;;5.57;;
60100;SDS011;45978;53.646;55.930;2022-10-29T05:03:03;26.30;;;7.35;;
60100;SDS011;45978;53.646;55.930;2022-10-29T05:04:04;18.35;;;10.02;;
60100;SDS011;45978;53.646;55.930;2022-10-29T05:05:05;19.17;;;5.20;;
60100;SDS011;45978;53.646;55.930;2022-10-29T05:06:10;13.35;;;5.60;;
60100;SDS011;45978;53.646;55.930;2022-10-29T05:07:11;16.50;;;9.68;;
60100;SDS011;45978;53.646;55.930;2022-10-29T05:08:14;6.53;;;4.68;;
60100;SDS011;45978;53.646;55.930;2022-10-29T05:09:17;7.20;;;4.95;;
60100;SDS011;45978;53.646;55.930;2022-10-29T05:10:19;13.13;;;6.00;;
60100;SDS011;45978;53.646;55.930;2022-10-29T05:11:21;11.05;;;4.70;;
60100;SDS011;45978;53.646;55.930;2022-10-29T05:12:24;9.75;;;4.60;;
60100;SDS011;45978;53.646;55.930;2022-10-29T05:13:27;5.55;;;4.20;;
60100;SDS011;45978;53.646;55.930;2022-10-29T05:14:30;9.55;;;4.53;;
60100;SDS011;45978;53.646;55.930;2022-10-29T05:15:32;5.78;;;4.70;;
60100;SDS011;45978;53.646;55.930;2022-10-29T05:16:33;8.18;;;4.80;;
60100;SDS011;45978;53.646;55.930;2022-10-29T05:17:36;12.77;;;5.07;;
60100;SDS011;45978;53.646;55.930;2022-10-29T05:18:40;11.45;;;5.07;;
60100;SDS011;45978;53.646;55.930;2022-10-29T05:19:41;5.32;;;4.65;;
60100;SDS011;45978;53.646;55.930;2022-10-29T05:20:45;7.30;;;5.20;;
60100;SDS011;45978;53.646;55.930;2022-10-29T05:21:46;9.43;;;4.78;;
60100;SDS011;45978;53.646;55.930;2022-10-29T05:22:56;9.05;;;4.72;;
60100;SDS011;45978;53.646;55.930;2022-10-29T05:24:07;9.38;;;4.82;;
60100;SDS011;45978;53.646;55.930;2022-10-29T05:25:09;6.97;;;4.90;;
60100;SDS011;45978;53.646;55.930;2022-10-29T05:26:10;9.02;;;4.78;;
60100;SDS011;45978;53.646;55.930;2022-10-29T05:27:13;8.40;;;4.05;;
60100;SDS011;45978;53.646;55.930;2022-10-29T05:28:15;11.77;;;4.47;;
60100;SDS011;45978;53.646;55.930;2022-10-29T05:29:18;9.38;;;4.95;;
60100;SDS011;45978;53.646;55.930;2022-10-29T05:30:23;8.45;;;5.05;;
60100;SDS011;45978;53.646;55.930;2022-10-29T05:31:26;7.10;;;4.63;;
60100;SDS011;45978;53.646;55.930;2022-10-29T05:32:33;11.10;;;5.30;;
60100;SDS011;45978;53.646;55.930;2022-10-29T05:33:36;7.53;;;4.43;;
60100;SDS011;45978;53.646;55.930;2022-10-29T05:34:41;9.18;;;4.63;;
60100;SDS011;45978;53.646;55.930;2022-10-29T05:35:42;9.77;;;4.65;;
60100;SDS011;45978;53.646;55.930;2022-10-29T05:36:43;5.90;;;4.45;;
60100;SDS011;45978;53.646;55.930;2022-10-29T05:37:51;13.35;;;4.22;;
60100;SDS011;45978;53.646;55.930;2022-10-29T05:38:53;4.70;;;4.03;;
60100;SDS011;45978;53.646;55.930;2022-10-29T05:39:54;7.18;;;4.35;;
60100;SDS011;45978;53.646;55.930;2022-10-29T05:40:58;10.88;;;4.15;;
60100;SDS011;45978;53.646;55.930;2022-10-29T05:42:01;7.90;;;4.20;;
60100;SDS011;45978;53.646;55.930;2022-10-29T05:43:02;9.10;;;3.97;;
60100;SDS011;45978;53.646;55.930;2022-10-29T05:44:03;8.15;;;4.55;;
60100;SDS011;45978;53.646;55.930;2022-10-29T05:45:06;8.40;;;4.43;;
60100;SDS011;45978;53.646;55.930;2022-10-29T05:46:08;5.10;;;4.40;;
60100;SDS011;45978;53.646;55.930;2022-10-29T05:47:17;8.43;;;5.00;;
60100;SDS011;45978;53.646;55.930;2022-10-29T05:48:19;5.10;;;4.47;;
60100;SDS011;45978;53.646;55.930;2022-10-29T05:49:23;5.85;;;4.13;;
60100;SDS011;45978;53.646;55.930;2022-10-29T05:50:25;7.75;;;4.63;;
60100;SDS011;45978;53.646;55.930;2022-10-29T05:51:27;13.38;;;4.60;;
60100;SDS011;45978;53.646;55.930;2022-10-29T05:52:30;6.75;;;4.43;;
60100;SDS011;45978;53.646;55.930;2022-10-29T05:53:31;7.57;;;4.07;;
60100;SDS011;45978;53.646;55.930;2022-10-29T05:54:33;12.30;;;4.35;;
60100;SDS011;45978;53.646;55.930;2022-10-29T05:55:35;6.47;;;4.70;;
60100;SDS011;45978;53.646;55.930;2022-10-29T05:56:37;9.75;;;4.85;;
60100;SDS011;45978;53.646;55.930;2022-10-29T05:57:39;14.38;;;4.95;;
60100;SDS011;45978;53.646;55.930;2022-10-29T05:58:47;13.80;;;4.65;;
60100;SDS011;45978;53.646;55.930;2022-10-29T05:59:50;4.80;;;4.32;;
60100;SDS011;45978;53.646;55.930;2022-10-29T06:00:51;9.38;;;4.93;;
60100;SDS011;45978;53.646;55.930;2022-10-29T06:01:53;12.80;;;5.22;;
60100;SDS011;45978;53.646;55.930;2022-10-29T06:02:54;15.15;;;7.15;;
60100;SDS011;45978;53.646;55.930;2022-10-29T06:03:56;29.13;;;14.07;;
60100;SDS011;45978;53.646;55.930;2022-10-29T06:04:57;17.02;;;8.13;;
60100;SDS011;45978;53.646;55.930;2022-10-29T06:05:59;21.50;;;11.25;;
60100;SDS011;45978;53.646;55.930;2022-10-29T06:07:00;11.55;;;6.22;;
60100;SDS011;45978;53.646;55.930;2022-10-29T06:08:01;7.50;;;4.82;;
60100;SDS011;45978;53.646;55.930;2022-10-29T06:09:15;9.98;;;4.40;;
60100;SDS011;45978;53.646;55.930;2022-10-29T06:10:16;7.82;;;4.28;;
60100;SDS011;45978;53.646;55.930;2022-10-29T06:11:19;5.20;;;4.50;;
60100;SDS011;45978;53.646;55.930;2022-10-29T06:12:20;9.05;;;3.92;;
60100;SDS011;45978;53.646;55.930;2022-10-29T06:13:22;5.00;;;4.10;;
60100;SDS011;45978;53.646;55.930;2022-10-29T06:14:24;7.65;;;4.50;;
60100;SDS011;45978;53.646;55.930;2022-10-29T06:15:25;6.20;;;4.00;;
60100;SDS011;45978;53.646;55.930;2022-10-29T06:16:27;5.30;;;4.22;;
60100;SDS011;45978;53.646;55.930;2022-10-29T06:17:31;9.88;;;4.38;;
60100;SDS011;45978;53.646;55.930;2022-10-29T06:18:33;8.55;;;4.55;;
60100;SDS011;45978;53.646;55.930;2022-10-29T06:19:36;5.95;;;3.80;;
60100;SDS011;45978;53.646;55.930;2022-10-29T06:20:41;10.73;;;4.18;;
60100;SDS011;45978;53.646;55.930;2022-10-29T06:21:47;13.68;;;4.53;;
60100;SDS011;45978;53.646;55.930;2022-10-29T06:22:54;8.05;;;5.38;;
60100;SDS011;45978;53.646;55.930;2022-10-29T06:24:04;9.93;;;4.22;;
60100;SDS011;45978;53.646;55.930;2022-10-29T06:25:06;5.10;;;3.88;;
60100;SDS011;45978;53.646;55.930;2022-10-29T06:26:08;4.90;;;3.75;;
60100;SDS011;45978;53.646;55.930;2022-10-29T06:27:09;5.55;;;4.00;;
60100;SDS011;45978;53.646;55.930;2022-10-29T06:28:11;8.05;;;4.38;;
60100;SDS011;45978;53.646;55.930;2022-10-29T06:29:17;7.55;;;3.80;;
60100;SDS011;45978;53.646;55.930;2022-10-29T06:30:18;4.07;;;3.58;;
60100;SDS011;45978;53.646;55.930;2022-10-29T06:31:21;4.35;;;3.95;;
60100;SDS011;45978;53.646;55.930;2022-10-29T06:32:22;13.02;;;4.38;;
60100;SDS011;45978;53.646;55.930;2022-10-29T06:33:24;6.47;;;3.95;;
60100;SDS011;45978;53.646;55.930;2022-10-29T06:34:25;6.75;;;3.55;;
60100;SDS011;45978;53.646;55.930;2022-10-29T06:35:27;6.95;;;3.95;;
60100;SDS011;45978;53.646;55.930;2022-10-29T06:36:29;12.15;;;4.20;;
60100;SDS011;45978;53.646;55.930;2022-10-29T06:37:30;9.68;;;3.70;;
60100;SDS011;45978;53.646;55.930;2022-10-29T06:38:32;4.95;;;3.92;;
60100;SDS011;45978;53.646;55.930;2022-10-29T06:39:34;4.10;;;3.70;;
60100;SDS011;45978;53.646;55.930;2022-10-29T06:40:42;6.45;;;3.80;;
60100;SDS011;45978;53.646;55.930;2022-10-29T06:41:45;11.77;;;4.65;;
60100;SDS011;45978;53.646;55.930;2022-10-29T06:43:03;7.97;;;4.28;;
60100;SDS011;45978;53.646;55.930;2022-10-29T06:44:06;6.70;;;3.92;;
60100;SDS011;45978;53.646;55.930;2022-10-29T06:45:09;11.48;;;4.00;;
60100;SDS011;45978;53.646;55.930;2022-10-29T06:46:11;10.73;;;4.00;;
60100;SDS011;45978;53.646;55.930;2022-10-29T06:47:13;7.25;;;4.40;;
60100;SDS011;45978;53.646;55.930;2022-10-29T06:48:14;6.18;;;3.65;;
60100;SDS011;45978;53.646;55.930;2022-10-29T06:49:16;4.55;;;3.92;;
60100;SDS011;45978;53.646;55.930;2022-10-29T06:50:18;4.32;;;3.72;;
60100;SDS011;45978;53.646;55.930;2022-10-29T06:51:19;8.02;;;4.20;;
60100;SDS011;45978;53.646;55.930;2022-10-29T06:52:20;8.05;;;3.78;;
60100;SDS011;45978;53.646;55.930;2022-10-29T06:53:21;5.65;;;3.90;;
60100;SDS011;45978;53.646;55.930;2022-10-29T06:54:25;8.27;;;3.47;;
60100;SDS011;45978;53.646;55.930;2022-10-29T06:55:31;4.93;;;4.03;;
60100;SDS011;45978;53.646;55.930;2022-10-29T06:56:36;7.20;;;3.83;;
60100;SDS011;45978;53.646;55.930;2022-10-29T06:57:40;6.97;;;3.92;;
60100;SDS011;45978;53.646;55.930;2022-10-29T06:58:41;6.60;;;3.90;;
60100;SDS011;45978;53.646;55.930;2022-10-29T06:59:44;4.43;;;3.45;;
60100;SDS011;45978;53.646;55.930;2022-10-29T07:00:45;6.05;;;3.75;;
60100;SDS011;45978;53.646;55.930;2022-10-29T07:01:47;13.80;;;4.38;;